Time;durP1;ratioP1;P1;durP2;ratioP2;P2;SDS_P1;SDS_P2;PMS_P1;PMS_P2;Temp;Humidity;BMP_temperature;BMP_pressure;BME280_temperature;BME280_humidity;BME280_pressure;Samples;Min_cycle;Max_cycle;Signal;HPM_P1;HPM_P2
2022/04/16 00:00:58;;;;;;;11.15;7.60;;;;;;;;;;6145620;23;20107;-53
2022/04/16 00:03:24;;;;;;;13.63;8.68;;;;;;;;;;6145019;23;20013;-50
2022/04/16 00:05:51;;;;;;;14.50;8.25;;;;;;;;;;6144938;23;20017;-49
2022/04/16 00:08:16;;;;;;;11.45;8.02;;;;;;;;;;6144889;23;20071;-49
2022/04/16 00:10:42;;;;;;;17.17;9.02;;;;;;;;;;6143327;23;20144;-51
2022/04/16 00:13:07;;;;;;;14.27;8.85;;;;;;;;;;6145622;23;20013;-49
2022/04/16 00:15:33;;;;;;;13.88;9.00;;;;;;;;;;6142883;23;20037;-49
2022/04/16 00:17:58;;;;;;;15.50;9.20;;;;;;;;;;6144766;23;20010;-51
2022/04/16 00:20:27;;;;;;;15.23;8.98;;;;;;;;;;6145189;23;20013;-51
2022/04/16 00:22:52;;;;;;;17.48;8.23;;;;;;;;;;6145680;23;20165;-53
2022/04/16 00:25:19;;;;;;;10.02;7.45;;;;;;;;;;6145049;23;20011;-52
2022/04/16 00:27:44;;;;;;;15.52;7.72;;;;;;;;;;6144810;23;20040;-48
2022/04/16 00:30:09;;;;;;;12.02;7.43;;;;;;;;;;6144768;23;20161;-49
2022/04/16 00:32:35;;;;;;;16.15;6.88;;;;;;;;;;6144962;23;20010;-48
2022/04/16 00:35:01;;;;;;;14.27;7.78;;;;;;;;;;6145422;23;20033;-50
2022/04/16 00:37:27;;;;;;;8.85;6.05;;;;;;;;;;6143867;23;20048;-51
2022/04/16 00:39:52;;;;;;;17.77;7.18;;;;;;;;;;6145504;23;20013;-51
2022/04/16 00:42:17;;;;;;;9.80;5.93;;;;;;;;;;6142411;23;20013;-49
2022/04/16 00:44:43;;;;;;;10.05;6.30;;;;;;;;;;6145561;23;20004;-52
2022/04/16 00:47:08;;;;;;;8.90;5.65;;;;;;;;;;6144038;23;20036;-54
2022/04/16 00:49:33;;;;;;;8.02;5.50;;;;;;;;;;6143794;23;20085;-50
2022/04/16 00:52:01;;;;;;;7.32;5.50;;;;;;;;;;6144809;23;20021;-54
2022/04/16 00:54:26;;;;;;;7.88;5.28;;;;;;;;;;6144422;23;20037;-50
2022/04/16 00:56:51;;;;;;;8.00;4.15;;;;;;;;;;6144283;23;20009;-52
2022/04/16 00:59:17;;;;;;;7.45;4.63;;;;;;;;;;6144548;23;20017;-50
2022/04/16 01:01:42;;;;;;;6.75;4.50;;;;;;;;;;6144468;23;20092;-52
2022/04/16 01:04:07;;;;;;;9.60;5.03;;;;;;;;;;6144012;23;20056;-51
2022/04/16 01:06:39;;;;;;;8.40;5.13;;;;;;;;;;6145064;23;20572;-52
2022/04/16 01:09:06;;;;;;;8.80;4.57;;;;;;;;;;6166826;23;20032;-53
2022/04/16 01:11:32;;;;;;;8.23;4.95;;;;;;;;;;6166914;23;20056;-51
2022/04/16 01:14:01;;;;;;;8.95;4.82;;;;;;;;;;6145003;23;20013;-53
2022/04/16 01:16:28;;;;;;;12.10;4.95;;;;;;;;;;6162818;23;20088;-52
2022/04/16 01:18:55;;;;;;;7.82;4.65;;;;;;;;;;6143508;23;20527;-54
2022/04/16 01:21:20;;;;;;;8.02;4.97;;;;;;;;;;6143480;23;20006;-53
2022/04/16 01:23:45;;;;;;;6.60;4.78;;;;;;;;;;6144746;23;20092;-54
2022/04/16 01:26:10;;;;;;;9.18;5.68;;;;;;;;;;6143680;23;20468;-52
2022/04/16 01:28:36;;;;;;;6.72;4.90;;;;;;;;;;6142591;23;20006;-50
2022/04/16 01:31:01;;;;;;;9.00;5.30;;;;;;;;;;6146447;23;20100;-53
2022/04/16 01:33:26;;;;;;;8.60;5.30;;;;;;;;;;6142703;23;20041;-50
2022/04/16 01:35:53;;;;;;;9.50;5.50;;;;;;;;;;6145488;23;20025;-54
2022/04/16 01:38:19;;;;;;;9.63;5.93;;;;;;;;;;6141873;23;20021;-53
2022/04/16 01:40:44;;;;;;;9.75;5.35;;;;;;;;;;6146070;23;20380;-51
2022/04/16 01:43:09;;;;;;;11.48;5.97;;;;;;;;;;6144668;23;20010;-52
2022/04/16 01:45:35;;;;;;;9.23;6.03;;;;;;;;;;6143928;23;20016;-50
2022/04/16 01:48:00;;;;;;;7.95;5.30;;;;;;;;;;6145523;23;20316;-49
2022/04/16 01:50:26;;;;;;;8.55;5.38;;;;;;;;;;6140848;23;20013;-52
2022/04/16 01:52:52;;;;;;;7.28;5.05;;;;;;;;;;6144595;23;20010;-48
2022/04/16 01:55:17;;;;;;;8.57;5.32;;;;;;;;;;6142456;23;20089;-52
2022/04/16 01:57:43;;;;;;;9.35;5.28;;;;;;;;;;6145159;23;20016;-50
2022/04/16 02:00:14;;;;;;;10.55;5.53;;;;;;;;;;6144480;23;20014;-48
2022/04/16 02:02:39;;;;;;;13.32;5.45;;;;;;;;;;6145158;23;20009;-52
2022/04/16 02:05:05;;;;;;;10.65;5.88;;;;;;;;;;6145405;23;20051;-54
2022/04/16 02:07:30;;;;;;;9.57;5.43;;;;;;;;;;6145541;23;20013;-53
2022/04/16 02:09:56;;;;;;;7.80;5.35;;;;;;;;;;6143409;23;20044;-50
2022/04/16 02:12:21;;;;;;;10.00;5.57;;;;;;;;;;6144535;23;20033;-52
2022/04/16 02:14:47;;;;;;;9.63;5.55;;;;;;;;;;6141064;23;20104;-50
2022/04/16 02:17:12;;;;;;;11.07;7.30;;;;;;;;;;6143649;23;20720;-53
2022/04/16 02:19:38;;;;;;;9.35;6.35;;;;;;;;;;6143973;23;20549;-49
2022/04/16 02:22:03;;;;;;;12.75;6.03;;;;;;;;;;6145399;23;20016;-53
2022/04/16 02:24:29;;;;;;;12.80;6.45;;;;;;;;;;6142674;23;20045;-50
2022/04/16 02:26:58;;;;;;;10.98;6.90;;;;;;;;;;6144488;23;20032;-51
2022/04/16 02:29:23;;;;;;;13.20;7.67;;;;;;;;;;6143067;23;20018;-52
2022/04/16 02:31:48;;;;;;;14.43;6.85;;;;;;;;;;6143507;23;20072;-48
2022/04/16 02:34:13;;;;;;;12.82;8.07;;;;;;;;;;6145210;23;20139;-51
2022/04/16 02:36:40;;;;;;;13.55;7.55;;;;;;;;;;6146412;23;20013;-49
2022/04/16 02:39:06;;;;;;;12.30;6.75;;;;;;;;;;6145427;23;20640;-48
2022/04/16 02:41:31;;;;;;;10.95;6.65;;;;;;;;;;6145295;23;20017;-51
2022/04/16 02:43:58;;;;;;;12.82;6.85;;;;;;;;;;6145118;23;20010;-52
2022/04/16 02:49:12;;;;;;;11.20;7.22;;;;;;;;;;6147003;23;20206;-50
2022/04/16 02:51:38;;;;;;;13.00;8.02;;;;;;;;;;6147186;23;20533;-52
2022/04/16 02:54:05;;;;;;;14.23;7.43;;;;;;;;;;6147630;23;20010;-51
2022/04/16 02:56:30;;;;;;;11.80;7.85;;;;;;;;;;6146729;23;20366;-48
2022/04/16 02:58:56;;;;;;;11.25;7.40;;;;;;;;;;6170515;23;20125;-50
2022/04/16 03:01:21;;;;;;;12.10;8.02;;;;;;;;;;6146361;23;20020;-52
2022/04/16 03:03:46;;;;;;;12.07;7.00;;;;;;;;;;6148167;23;20016;-50
2022/04/16 03:06:11;;;;;;;8.77;6.78;;;;;;;;;;6144584;23;20025;-50
2022/04/16 03:08:36;;;;;;;14.25;7.15;;;;;;;;;;6146535;23;20041;-51
2022/04/16 03:11:04;;;;;;;15.40;7.20;;;;;;;;;;6147166;23;20016;-53
2022/04/16 03:13:30;;;;;;;11.48;6.70;;;;;;;;;;6169803;23;20033;-49
2022/04/16 03:18:39;;;;;;;12.18;6.75;;;;;;;;;;6147700;23;20053;-52
2022/04/16 03:21:05;;;;;;;12.63;7.80;;;;;;;;;;6145661;23;20021;-49
2022/04/16 03:23:30;;;;;;;17.10;7.45;;;;;;;;;;6147609;23;23202;-51
2022/04/16 03:26:00;;;;;;;12.18;6.97;;;;;;;;;;6147295;23;20014;-49
2022/04/16 03:28:25;;;;;;;10.93;7.28;;;;;;;;;;6143893;23;20013;-50
2022/04/16 03:30:51;;;;;;;9.95;6.68;;;;;;;;;;6147293;23;20013;-48
2022/04/16 03:33:16;;;;;;;15.35;8.45;;;;;;;;;;6145402;23;20024;-52
2022/04/16 03:35:41;;;;;;;15.10;8.05;;;;;;;;;;6146939;23;20023;-51
2022/04/16 03:38:06;;;;;;;14.73;8.52;;;;;;;;;;6146860;23;20015;-54
2022/04/16 03:40:32;;;;;;;11.88;7.43;;;;;;;;;;6145844;23;20731;-53
2022/04/16 03:43:00;;;;;;;14.00;7.90;;;;;;;;;;6141336;23;20234;-53
2022/04/16 03:45:29;;;;;;;14.50;8.32;;;;;;;;;;6146369;23;20733;-50
2022/04/16 03:47:55;;;;;;;11.70;6.40;;;;;;;;;;6147585;23;20017;-49
2022/04/16 03:50:20;;;;;;;14.38;7.85;;;;;;;;;;6145558;23;20061;-54
2022/04/16 03:52:46;;;;;;;12.50;6.50;;;;;;;;;;6148209;23;20048;-52
2022/04/16 04:00:45;;;;;;;12.95;7.38;;;;;;;;;;6146934;23;20239;-52
2022/04/16 04:03:11;;;;;;;11.18;7.00;;;;;;;;;;6145539;23;20006;-54
2022/04/16 04:05:37;;;;;;;13.07;7.90;;;;;;;;;;6147215;23;20822;-53
2022/04/16 04:08:04;;;;;;;11.60;7.68;;;;;;;;;;6145494;23;20016;-52
2022/04/16 04:10:29;;;;;;;16.10;9.55;;;;;;;;;;6145486;23;20018;-51
2022/04/16 04:12:54;;;;;;;19.70;10.00;;;;;;;;;;6146611;23;20037;-52
2022/04/16 04:15:20;;;;;;;16.67;9.90;;;;;;;;;;6145607;23;20037;-51
2022/04/16 04:17:45;;;;;;;15.85;9.70;;;;;;;;;;6147565;23;20021;-49
2022/04/16 04:20:10;;;;;;;17.98;10.27;;;;;;;;;;6146046;23;20032;-51
2022/04/16 04:22:35;;;;;;;17.00;9.82;;;;;;;;;;6146928;23;20019;-49
2022/04/16 04:25:01;;;;;;;13.50;9.30;;;;;;;;;;6146669;23;20024;-53
2022/04/16 04:27:26;;;;;;;12.93;8.85;;;;;;;;;;6145572;23;20009;-51
2022/04/16 04:29:51;;;;;;;15.27;9.60;;;;;;;;;;6144917;23;20005;-49
2022/04/16 04:32:16;;;;;;;16.35;9.35;;;;;;;;;;6146376;23;20020;-52
2022/04/16 04:34:42;;;;;;;17.90;9.32;;;;;;;;;;6146242;23;20596;-48
2022/04/16 04:37:07;;;;;;;16.50;9.50;;;;;;;;;;6147891;23;20029;-53
2022/04/16 04:39:32;;;;;;;18.10;11.10;;;;;;;;;;6145633;23;20627;-54
2022/04/16 04:41:58;;;;;;;16.88;9.30;;;;;;;;;;6146834;23;20068;-51
2022/04/16 04:44:23;;;;;;;16.98;10.38;;;;;;;;;;6145564;23;20005;-51
2022/04/16 04:46:48;;;;;;;18.77;9.43;;;;;;;;;;6145986;23;20025;-51
2022/04/16 04:49:14;;;;;;;18.13;10.13;;;;;;;;;;6145611;23;20013;-50
2022/04/16 04:51:39;;;;;;;17.98;9.45;;;;;;;;;;6145310;23;20491;-52
2022/04/16 04:54:05;;;;;;;15.73;8.88;;;;;;;;;;6146860;23;20009;-50
2022/04/16 04:56:30;;;;;;;13.68;8.55;;;;;;;;;;6145204;23;20013;-52
2022/04/16 04:58:56;;;;;;;13.50;8.43;;;;;;;;;;6147176;23;20070;-50
2022/04/16 05:01:21;;;;;;;18.42;10.38;;;;;;;;;;6144278;23;20384;-53
2022/04/16 05:03:47;;;;;;;17.15;9.82;;;;;;;;;;6146114;23;20014;-53
2022/04/16 05:06:12;;;;;;;22.00;8.68;;;;;;;;;;6143749;23;20306;-52
2022/04/16 05:08:37;;;;;;;21.95;10.15;;;;;;;;;;6145893;23;20045;-53
2022/04/16 05:11:03;;;;;;;13.88;9.10;;;;;;;;;;6146036;23;20028;-50
2022/04/16 05:13:28;;;;;;;18.30;8.85;;;;;;;;;;6145103;23;20014;-54
2022/04/16 05:15:53;;;;;;;14.20;8.68;;;;;;;;;;6145796;23;20078;-50
2022/04/16 05:18:18;;;;;;;18.77;9.55;;;;;;;;;;6144910;23;20018;-52
2022/04/16 05:20:44;;;;;;;16.70;9.27;;;;;;;;;;6145594;23;20006;-51
2022/04/16 05:23:09;;;;;;;13.70;8.93;;;;;;;;;;6145573;23;20582;-49
2022/04/16 05:25:34;;;;;;;14.70;8.27;;;;;;;;;;6144104;23;20512;-52
2022/04/16 05:27:59;;;;;;;18.10;10.70;;;;;;;;;;6142774;23;20084;-51
2022/04/16 05:30:38;;;;;;;19.60;10.77;;;;;;;;;;6144649;23;20062;-52
2022/04/16 05:33:12;;;;;;;15.50;9.30;;;;;;;;;;6144862;23;20092;-52
2022/04/16 05:35:37;;;;;;;16.13;8.93;;;;;;;;;;6145694;23;20016;-52
2022/04/16 05:38:03;;;;;;;19.88;9.80;;;;;;;;;;6144700;23;20014;-54
2022/04/16 05:40:28;;;;;;;20.20;9.10;;;;;;;;;;6145568;23;20040;-52
2022/04/16 05:42:53;;;;;;;14.10;9.43;;;;;;;;;;6168365;23;20016;-52
2022/04/16 05:45:19;;;;;;;15.70;9.95;;;;;;;;;;6145573;23;20017;-54
2022/04/16 05:47:44;;;;;;;14.60;8.98;;;;;;;;;;6144468;23;20013;-53
2022/04/16 05:50:09;;;;;;;16.23;9.15;;;;;;;;;;6146538;23;20013;-52
2022/04/16 05:52:35;;;;;;;16.73;8.90;;;;;;;;;;6141461;23;20021;-52
2022/04/16 05:55:01;;;;;;;17.23;9.95;;;;;;;;;;6145404;23;20056;-53
2022/04/16 05:57:27;;;;;;;20.83;11.18;;;;;;;;;;6143026;23;20005;-53
2022/04/16 05:59:54;;;;;;;17.92;11.05;;;;;;;;;;6145486;23;20026;-54
2022/04/16 06:02:20;;;;;;;18.85;10.40;;;;;;;;;;6142686;23;20001;-54
2022/04/16 06:04:45;;;;;;;19.35;11.55;;;;;;;;;;6146227;23;20079;-54
2022/04/16 06:07:10;;;;;;;19.23;11.32;;;;;;;;;;6144784;23;20079;-53
2022/04/16 06:09:35;;;;;;;23.05;11.73;;;;;;;;;;6143868;23;20018;-52
2022/04/16 06:12:02;;;;;;;17.80;9.80;;;;;;;;;;6145530;23;20012;-51
2022/04/16 06:14:27;;;;;;;19.70;10.45;;;;;;;;;;6143340;23;20021;-51
2022/04/16 06:16:52;;;;;;;17.30;10.38;;;;;;;;;;6145544;23;20024;-53
2022/04/16 06:19:18;;;;;;;20.42;10.65;;;;;;;;;;6143023;23;20113;-49
2022/04/16 06:21:43;;;;;;;24.98;11.88;;;;;;;;;;6145309;23;20066;-53
2022/04/16 06:24:08;;;;;;;18.77;11.07;;;;;;;;;;6145979;23;20040;-51
2022/04/16 06:26:33;;;;;;;23.90;12.90;;;;;;;;;;6145253;23;20040;-52
2022/04/16 06:28:58;;;;;;;23.85;14.57;;;;;;;;;;6145111;23;20013;-52
2022/04/16 06:31:24;;;;;;;27.50;15.52;;;;;;;;;;6145142;23;20013;-55
2022/04/16 06:33:49;;;;;;;31.45;16.05;;;;;;;;;;6147038;23;20009;-54
2022/04/16 06:36:14;;;;;;;22.48;14.45;;;;;;;;;;6145836;23;20005;-52
2022/04/16 06:38:39;;;;;;;30.17;15.20;;;;;;;;;;6144159;23;20018;-54
2022/04/16 06:41:05;;;;;;;32.72;17.02;;;;;;;;;;6147233;23;20104;-51
2022/04/16 06:43:30;;;;;;;28.40;14.65;;;;;;;;;;6145173;23;20451;-55
2022/04/16 06:45:55;;;;;;;28.38;15.55;;;;;;;;;;6147148;23;20005;-52
2022/04/16 06:48:20;;;;;;;29.48;15.98;;;;;;;;;;6144817;23;20033;-54
2022/04/16 06:50:46;;;;;;;27.17;15.13;;;;;;;;;;6147785;23;20009;-53
2022/04/16 06:53:11;;;;;;;22.17;15.75;;;;;;;;;;6144959;23;20100;-54
2022/04/16 06:55:36;;;;;;;34.33;17.00;;;;;;;;;;6146448;23;20074;-52
2022/04/16 06:58:02;;;;;;;33.05;18.48;;;;;;;;;;6146088;23;20017;-52
2022/04/16 07:00:27;;;;;;;40.88;20.42;;;;;;;;;;6145356;23;20029;-53
2022/04/16 07:02:53;;;;;;;40.20;20.90;;;;;;;;;;6145424;23;20219;-52
2022/04/16 07:05:18;;;;;;;36.03;20.65;;;;;;;;;;6145423;23;20020;-54
2022/04/16 07:07:43;;;;;;;30.20;18.10;;;;;;;;;;6145835;23;20009;-54
2022/04/16 07:10:11;;;;;;;34.20;18.52;;;;;;;;;;6145034;23;20008;-50
2022/04/16 07:12:36;;;;;;;35.80;19.55;;;;;;;;;;6144731;23;20057;-52
2022/04/16 07:15:02;;;;;;;38.95;19.55;;;;;;;;;;6145853;23;20077;-51
2022/04/16 07:17:27;;;;;;;38.95;20.45;;;;;;;;;;6143903;23;20044;-52
2022/04/16 07:19:54;;;;;;;35.33;19.80;;;;;;;;;;6146153;23;20033;-54
2022/04/16 07:22:20;;;;;;;35.38;19.25;;;;;;;;;;6144168;23;20061;-55
2022/04/16 07:24:45;;;;;;;36.58;20.35;;;;;;;;;;6145575;23;20024;-52
2022/04/16 07:27:11;;;;;;;39.03;20.42;;;;;;;;;;6143911;23;20032;-52
2022/04/16 07:29:36;;;;;;;36.70;18.60;;;;;;;;;;6142029;23;20348;-55
2022/04/16 07:32:01;;;;;;;37.15;20.15;;;;;;;;;;6145987;23;20049;-52
2022/04/16 07:34:27;;;;;;;34.20;20.15;;;;;;;;;;6142872;23;20041;-51
2022/04/16 07:36:52;;;;;;;38.03;19.52;;;;;;;;;;6146222;23;20029;-54
2022/04/16 07:39:17;;;;;;;34.50;19.33;;;;;;;;;;6142292;23;20029;-50
2022/04/16 07:41:43;;;;;;;40.83;21.38;;;;;;;;;;6145657;23;20018;-53
2022/04/16 07:44:08;;;;;;;38.35;22.13;;;;;;;;;;6139312;23;20002;-52
2022/04/16 07:46:34;;;;;;;44.45;22.63;;;;;;;;;;6144555;23;20017;-53
2022/04/16 07:48:59;;;;;;;40.83;20.40;;;;;;;;;;6145926;23;20013;-54
2022/04/16 07:51:25;;;;;;;39.50;21.73;;;;;;;;;;6144102;23;20082;-52
2022/04/16 07:53:51;;;;;;;48.50;20.90;;;;;;;;;;6144630;23;20036;-51
2022/04/16 07:56:16;;;;;;;42.38;20.48;;;;;;;;;;6143345;23;20009;-53
2022/04/16 07:58:42;;;;;;;41.38;23.13;;;;;;;;;;6145923;23;20366;-49
2022/04/16 08:01:07;;;;;;;43.20;21.85;;;;;;;;;;6144710;23;20014;-53
2022/04/16 08:03:32;;;;;;;40.25;23.13;;;;;;;;;;6143539;23;20025;-54
2022/04/16 08:05:58;;;;;;;42.72;22.42;;;;;;;;;;6145382;23;20016;-52
2022/04/16 08:08:23;;;;;;;42.35;21.02;;;;;;;;;;6142008;23;20028;-55
2022/04/16 08:10:51;;;;;;;39.63;22.20;;;;;;;;;;6145308;23;20020;-52
2022/04/16 08:13:18;;;;;;;46.08;22.42;;;;;;;;;;6144507;23;20073;-55
2022/04/16 08:15:43;;;;;;;41.55;21.05;;;;;;;;;;6168301;23;20030;-52
2022/04/16 08:18:09;;;;;;;44.80;22.85;;;;;;;;;;6144495;23;20092;-51
2022/04/16 08:20:34;;;;;;;46.92;21.73;;;;;;;;;;6143621;23;20021;-54
2022/04/16 08:23:05;;;;;;;42.08;22.40;;;;;;;;;;6145152;23;20040;-53
2022/04/16 08:27:55;;;;;;;50.35;22.58;;;;;;;;;;6143460;23;20021;-53
2022/04/16 08:30:21;;;;;;;40.42;21.88;;;;;;;;;;6143468;23;20093;-53
2022/04/16 08:32:47;;;;;;;43.60;21.75;;;;;;;;;;6142677;23;20020;-53
2022/04/16 08:35:14;;;;;;;41.08;23.25;;;;;;;;;;6144892;23;20014;-54
2022/04/16 08:37:40;;;;;;;40.63;21.10;;;;;;;;;;6142875;23;20018;-53
2022/04/16 08:40:06;;;;;;;47.00;22.92;;;;;;;;;;6143423;23;20025;-50
2022/04/16 08:42:35;;;;;;;44.67;23.20;;;;;;;;;;6142800;23;20014;-53
2022/04/16 08:45:02;;;;;;;48.63;23.80;;;;;;;;;;6144119;23;20001;-53
2022/04/16 08:47:27;;;;;;;47.30;21.73;;;;;;;;;;6140563;23;20521;-52
2022/04/16 08:49:53;;;;;;;39.85;21.27;;;;;;;;;;6144674;23;20395;-53
2022/04/16 08:52:19;;;;;;;41.70;23.10;;;;;;;;;;6144225;23;20017;-54
2022/04/16 08:54:44;;;;;;;48.00;21.73;;;;;;;;;;6144448;23;20014;-54
2022/04/16 08:57:10;;;;;;;40.35;20.05;;;;;;;;;;6168522;23;20010;-55
2022/04/16 08:59:35;;;;;;;44.17;20.92;;;;;;;;;;6143668;23;20032;-53
2022/04/16 09:02:00;;;;;;;43.70;21.20;;;;;;;;;;6144952;23;20010;-52
2022/04/16 09:04:28;;;;;;;43.67;22.58;;;;;;;;;;6141353;23;20398;-54
2022/04/16 09:06:56;;;;;;;39.50;22.33;;;;;;;;;;6145360;23;20010;-50
2022/04/16 09:09:21;;;;;;;41.30;22.88;;;;;;;;;;6142661;23;20017;-53
2022/04/16 09:11:48;;;;;;;44.38;22.42;;;;;;;;;;6144808;23;20040;-55
2022/04/16 09:14:14;;;;;;;49.03;24.27;;;;;;;;;;6142889;23;20017;-54
2022/04/16 09:16:39;;;;;;;47.17;22.63;;;;;;;;;;6144363;23;20081;-52
2022/04/16 09:19:05;;;;;;;44.25;24.58;;;;;;;;;;6144036;23;20025;-54
2022/04/16 09:21:30;;;;;;;42.13;24.25;;;;;;;;;;6143698;23;20041;-53
2022/04/16 09:23:59;;;;;;;44.50;25.20;;;;;;;;;;6143734;23;20013;-54
2022/04/16 09:26:35;;;;;;;47.72;25.58;;;;;;;;;;6142730;23;20512;-53
2022/04/16 09:29:10;;;;;;;43.05;23.48;;;;;;;;;;6144248;23;20005;-51
2022/04/16 09:31:38;;;;;;;45.17;25.15;;;;;;;;;;6139611;23;20844;-51
2022/04/16 09:34:04;;;;;;;48.10;24.92;;;;;;;;;;6144901;23;20020;-55
2022/04/16 09:36:29;;;;;;;38.05;21.58;;;;;;;;;;6141592;23;20006;-51
2022/04/16 09:39:01;;;;;;;41.75;23.63;;;;;;;;;;6114690;23;20114;-45
2022/04/16 09:41:30;;;;;;;43.35;23.65;;;;;;;;;;6128213;23;20025;-49
2022/04/16 09:43:55;;;;;;;45.85;26.27;;;;;;;;;;6146716;23;20006;-44
2022/04/16 09:46:21;;;;;;;47.22;24.48;;;;;;;;;;6144809;23;20019;-47
2022/04/16 09:48:47;;;;;;;47.28;24.48;;;;;;;;;;6168522;23;20373;-45
2022/04/16 09:51:12;;;;;;;43.40;24.80;;;;;;;;;;6144390;23;20005;-45
2022/04/16 09:53:38;;;;;;;47.42;24.98;;;;;;;;;;6145357;23;20014;-44
2022/04/16 09:56:05;;;;;;;44.42;22.20;;;;;;;;;;6147251;23;20025;-45
2022/04/16 09:58:36;;;;;;;44.95;23.13;;;;;;;;;;6148382;23;20032;-48
2022/04/16 10:01:01;;;;;;;47.97;26.42;;;;;;;;;;6133495;23;20013;-47
2022/04/16 10:03:27;;;;;;;53.53;25.35;;;;;;;;;;6144976;23;20028;-45
2022/04/16 10:05:54;;;;;;;47.05;24.27;;;;;;;;;;6147246;23;20010;-46
2022/04/16 10:08:20;;;;;;;42.22;23.27;;;;;;;;;;6144866;23;20068;-46
2022/04/16 10:10:54;;;;;;;42.35;25.13;;;;;;;;;;6145122;23;20036;-46
2022/04/16 10:13:20;;;;;;;42.67;23.92;;;;;;;;;;6144481;23;20006;-47
2022/04/16 10:16:02;;;;;;;48.95;26.15;;;;;;;;;;6146034;23;20073;-45
2022/04/16 10:18:27;;;;;;;40.25;23.17;;;;;;;;;;6144443;23;20021;-48
2022/04/16 10:20:54;;;;;;;48.10;24.85;;;;;;;;;;6144513;23;20085;-47
2022/04/16 10:23:25;;;;;;;47.50;24.48;;;;;;;;;;6145494;23;20036;-47
2022/04/16 10:25:50;;;;;;;46.40;23.27;;;;;;;;;;6167769;23;20013;-45
2022/04/16 10:28:16;;;;;;;42.28;24.45;;;;;;;;;;6145472;23;20013;-47
2022/04/16 10:30:49;;;;;;;37.33;21.25;;;;;;;;;;6146959;23;20584;-46
2022/04/16 10:33:17;;;;;;;42.20;25.67;;;;;;;;;;6143118;23;20029;-46
2022/04/16 10:35:58;;;;;;;49.40;26.40;;;;;;;;;;6146814;23;20016;-46
2022/04/16 10:38:34;;;;;;;47.35;25.02;;;;;;;;;;6173886;23;20098;-44
2022/04/16 10:41:00;;;;;;;41.85;24.60;;;;;;;;;;6173879;23;20043;-45
2022/04/16 10:43:27;;;;;;;46.50;27.92;;;;;;;;;;6174736;23;20015;-44
2022/04/16 10:46:10;;;;;;;49.97;29.20;;;;;;;;;;6171631;23;20040;-45
2022/04/16 10:48:37;;;;;;;45.67;23.55;;;;;;;;;;6176151;23;20012;-47
2022/04/16 10:51:03;;;;;;;42.67;26.60;;;;;;;;;;6174992;23;20009;-45
2022/04/16 10:53:38;;;;;;;48.47;26.65;;;;;;;;;;6175368;23;20036;-46
2022/04/16 10:56:17;;;;;;;38.65;23.45;;;;;;;;;;6174753;23;20013;-44
2022/04/16 10:58:43;;;;;;;40.72;24.73;;;;;;;;;;6173914;23;20037;-47
2022/04/16 11:01:10;;;;;;;36.75;20.08;;;;;;;;;;6198989;23;20029;-46
2022/04/16 11:03:46;;;;;;;28.70;17.05;;;;;;;;;;6171369;23;20071;-44
2022/04/16 11:06:11;;;;;;;37.40;24.13;;;;;;;;;;6175119;23;20005;-46
2022/04/16 11:08:41;;;;;;;35.65;18.42;;;;;;;;;;6172513;23;20035;-48
2022/04/16 11:11:07;;;;;;;37.40;20.23;;;;;;;;;;6170615;23;20013;-45
2022/04/16 11:13:34;;;;;;;32.67;19.42;;;;;;;;;;6170673;23;20122;-43
2022/04/16 11:16:01;;;;;;;28.45;15.65;;;;;;;;;;6175887;23;20084;-45
2022/04/16 11:18:26;;;;;;;20.08;12.27;;;;;;;;;;6171639;23;20005;-46
2022/04/16 11:20:58;;;;;;;28.67;14.55;;;;;;;;;;6176861;23;20136;-44
2022/04/16 11:23:26;;;;;;;22.65;14.23;;;;;;;;;;6172905;23;20013;-44
2022/04/16 11:34:20;;;;;;;15.75;8.50;;;;;;;;;;6176825;23;20559;-44
2022/04/16 11:36:51;;;;;;;30.02;16.38;;;;;;;;;;6175962;23;20076;-46
2022/04/16 11:39:17;;;;;;;33.17;19.17;;;;;;;;;;6170981;23;20052;-45
2022/04/16 11:41:46;;;;;;;33.35;16.98;;;;;;;;;;6176003;23;20009;-45
2022/04/16 11:44:12;;;;;;;29.15;18.67;;;;;;;;;;6173736;23;20040;-47
2022/04/16 11:46:41;;;;;;;20.98;12.02;;;;;;;;;;6175979;23;20056;-46
2022/04/16 11:49:06;;;;;;;28.85;17.75;;;;;;;;;;6174453;23;20017;-45
2022/04/16 11:51:34;;;;;;;30.65;17.02;;;;;;;;;;6175491;23;20073;-43
2022/04/16 11:53:59;;;;;;;31.15;15.68;;;;;;;;;;6171686;23;20619;-46
2022/04/16 11:56:27;;;;;;;35.38;19.42;;;;;;;;;;6175197;23;20005;-45
2022/04/16 11:58:52;;;;;;;23.50;12.93;;;;;;;;;;6174260;23;20310;-48
2022/04/16 12:01:21;;;;;;;10.70;5.97;;;;;;;;;;6174734;23;20623;-46
2022/04/16 12:03:46;;;;;;;24.13;14.50;;;;;;;;;;6173775;23;20883;-46
2022/04/16 12:06:12;;;;;;;10.35;6.70;;;;;;;;;;6175380;23;20032;-46
2022/04/16 12:08:39;;;;;;;21.80;10.95;;;;;;;;;;6172814;23;20016;-46
2022/04/16 12:11:05;;;;;;;15.95;10.68;;;;;;;;;;6175560;23;20301;-46
2022/04/16 12:13:49;;;;;;;12.63;7.28;;;;;;;;;;6171876;23;20506;-46
2022/04/16 12:16:15;;;;;;;11.80;6.18;;;;;;;;;;6174247;23;20016;-49
2022/04/16 12:18:41;;;;;;;10.50;6.05;;;;;;;;;;6172732;23;20013;-46
2022/04/16 12:21:11;;;;;;;13.63;8.93;;;;;;;;;;6175334;23;20564;-45
2022/04/16 12:23:38;;;;;;;4.18;2.58;;;;;;;;;;6172031;23;20090;-44
2022/04/16 12:26:10;;;;;;;9.23;5.53;;;;;;;;;;6175447;23;20032;-45
2022/04/16 12:28:36;;;;;;;7.45;4.90;;;;;;;;;;6172634;23;20005;-45
2022/04/16 12:31:01;;;;;;;21.05;9.23;;;;;;;;;;6176321;23;20019;-45
2022/04/16 12:33:27;;;;;;;15.13;7.80;;;;;;;;;;6173707;23;20013;-45
2022/04/16 12:35:55;;;;;;;7.07;4.00;;;;;;;;;;6176283;23;20013;-45
2022/04/16 12:38:21;;;;;;;1.45;1.00;;;;;;;;;;6170782;23;20069;-47
2022/04/16 12:40:46;;;;;;;12.50;7.03;;;;;;;;;;6176871;23;20044;-45
2022/04/16 12:43:11;;;;;;;13.73;7.82;;;;;;;;;;6173804;23;20380;-46
2022/04/16 12:45:37;;;;;;;8.70;4.68;;;;;;;;;;6176113;23;20024;-49
2022/04/16 12:48:03;;;;;;;14.73;8.30;;;;;;;;;;6175206;23;20013;-45
2022/04/16 13:06:15;;;;;;;15.65;7.05;;;;;;;;;;6078615;22;1408055;-46
2022/04/16 13:08:40;;;;;;;10.35;5.68;;;;;;;;;;6150166;23;20017;-45
2022/04/16 13:11:07;;;;;;;12.70;7.07;;;;;;;;;;6154667;23;20006;-48
2022/04/16 13:13:32;;;;;;;5.97;4.15;;;;;;;;;;6151267;23;20073;-45
2022/04/16 13:15:58;;;;;;;11.10;6.53;;;;;;;;;;6153882;23;20013;-46
2022/04/16 13:18:23;;;;;;;5.18;3.13;;;;;;;;;;6150917;23;20005;-45
2022/04/16 13:20:49;;;;;;;8.23;5.60;;;;;;;;;;6154744;23;20009;-45
2022/04/16 13:23:14;;;;;;;6.82;4.20;;;;;;;;;;6151221;23;20345;-48
2022/04/16 13:25:39;;;;;;;9.52;6.00;;;;;;;;;;6153286;23;20010;-45
2022/04/16 13:28:04;;;;;;;11.27;6.23;;;;;;;;;;6151661;23;20014;-47
2022/04/16 13:30:30;;;;;;;9.68;5.78;;;;;;;;;;6152431;23;20247;-45
2022/04/16 13:32:55;;;;;;;13.18;4.55;;;;;;;;;;6151978;23;20017;-45
2022/04/16 13:35:21;;;;;;;10.88;4.93;;;;;;;;;;6151703;23;20096;-50
2022/04/16 13:37:47;;;;;;;10.57;5.38;;;;;;;;;;6152203;23;20021;-44
2022/04/16 13:42:56;;;;;;;8.93;4.45;;;;;;;;;;6180482;23;20234;-48
2022/04/16 13:45:21;;;;;;;7.53;5.57;;;;;;;;;;6181670;23;20013;-47
2022/04/16 13:47:46;;;;;;;20.70;13.10;;;;;;;;;;6181513;23;20685;-46
2022/04/16 13:50:12;;;;;;;7.10;4.63;;;;;;;;;;6182481;23;20028;-45
2022/04/16 13:52:37;;;;;;;7.93;5.00;;;;;;;;;;6181747;23;20065;-45
2022/04/16 13:55:04;;;;;;;7.70;3.72;;;;;;;;;;6183162;23;20060;-46
2022/04/16 13:57:29;;;;;;;5.38;3.65;;;;;;;;;;6203885;23;20878;-45
2022/04/16 13:59:55;;;;;;;13.80;4.95;;;;;;;;;;6182734;23;20005;-45
2022/04/16 14:02:20;;;;;;;10.55;6.40;;;;;;;;;;6173673;23;20035;-46
2022/04/16 14:07:29;;;;;;;9.07;5.65;;;;;;;;;;6203187;23;20027;-47
2022/04/16 14:09:54;;;;;;;10.60;6.20;;;;;;;;;;6167719;23;20020;-45
2022/04/16 14:12:20;;;;;;;10.70;5.78;;;;;;;;;;6202152;23;20017;-45
2022/04/16 14:14:45;;;;;;;6.10;4.32;;;;;;;;;;6194446;23;20066;-46
2022/04/16 14:17:10;;;;;;;8.18;5.35;;;;;;;;;;6202696;23;20040;-45
2022/04/16 14:19:36;;;;;;;13.90;6.88;;;;;;;;;;6166817;23;20004;-46
2022/04/16 14:22:02;;;;;;;6.68;4.15;;;;;;;;;;6204628;23;20008;-48
2022/04/16 14:24:27;;;;;;;16.42;8.95;;;;;;;;;;6204146;23;20059;-46
2022/04/16 14:26:53;;;;;;;8.98;4.63;;;;;;;;;;6191831;23;20627;-46
2022/04/16 14:29:18;;;;;;;14.00;7.50;;;;;;;;;;6204181;23;20108;-45
2022/04/16 14:31:44;;;;;;;11.45;8.68;;;;;;;;;;6204552;23;20019;-46
2022/04/16 14:34:10;;;;;;;9.18;5.90;;;;;;;;;;6205653;23;20027;-47
2022/04/16 14:36:36;;;;;;;17.98;11.73;;;;;;;;;;6201302;23;20012;-47
2022/04/16 14:39:01;;;;;;;8.75;5.60;;;;;;;;;;6205520;23;20430;-47
2022/04/16 14:41:26;;;;;;;7.90;4.93;;;;;;;;;;6202043;23;20087;-46
2022/04/16 14:43:56;;;;;;;4.45;2.58;;;;;;;;;;6206683;23;20359;-45
2022/04/16 14:46:22;;;;;;;8.90;4.45;;;;;;;;;;6202517;23;20499;-47
2022/04/16 14:48:49;;;;;;;6.30;4.00;;;;;;;;;;6166549;23;20080;-45
2022/04/16 14:51:15;;;;;;;11.05;5.05;;;;;;;;;;6203958;23;20005;-45
2022/04/16 14:53:40;;;;;;;8.80;4.50;;;;;;;;;;6194175;23;20123;-45
2022/04/16 14:56:05;;;;;;;8.15;4.80;;;;;;;;;;6205390;23;20040;-47
2022/04/16 14:58:31;;;;;;;8.93;4.68;;;;;;;;;;6204514;23;20044;-45
2022/04/16 15:00:57;;;;;;;11.32;6.07;;;;;;;;;;6204816;23;20020;-46
2022/04/16 15:03:22;;;;;;;14.55;5.45;;;;;;;;;;6204293;23;20019;-45